Aullville, Missouri
Current Conditions -  °F | °C
As of 2:55 PM on Saturday 22 Nov 2014 (Local Time) from KRCM Reporting Station
Overcast Overcast  
Wind Chill: 59°   Ceiling: 2500
Heat Index: 59°   Visibility: 10mi
Dew Point: 50°   Wind: 16mph
Humidity: 72%   Direction: 180°S
Pressure: 29.85"   Gusts: 25mph
Location:  39.0541°N, 93.6618°W
Report Text: KRCM 222055Z AUTO 18014G22KT 10SM OVC025 15/10 A2985 RMK AO2
Loading
Personal Weather Stations






























Interactive Weather Map New forecast layout! Learn more

10-Day Weather Forecast

Advertisements
Track Severe Weather on mobile